Limassol, Cyprus
Current Conditions -  °F | °C
As of 5:50 PM on Thursday 30 Oct 2014 (Local Time) from LCRA Reporting Station
Few Clouds Few Clouds  
Wind Chill: 21°   Ceiling: Unl
Heat Index: 21°   Visibility: 6mi
Dew Point: 14°   Wind: 12mph
Humidity: 64%   Direction: 270°W
Pressure: 29.88"   Gusts: NA
Location:  34.76°N, 32.95°E
Report Text: LCRA 301450Z 27010KT 9999 FEW030 21/14 Q1012 NOSIG
Loading
Personal Weather Stations






























Interactive Weather Map
Tropical Storm Tracking
New forecast layout! Learn more

10-Day Weather Forecast

Advertisements
Track Severe Weather on mobile